createdAt,value
2018-12-04T00:00:56.054Z,10.81
2018-12-04T00:03:23.713Z,10.76
2018-12-04T00:05:51.353Z,10.66
2018-12-04T00:08:18.989Z,10.50
2018-12-04T00:10:46.889Z,10.37
2018-12-04T00:13:14.506Z,10.24
2018-12-04T00:15:42.132Z,10.09
2018-12-04T00:18:10.109Z,9.98
2018-12-04T00:20:38.177Z,9.83
2018-12-04T00:23:06.290Z,9.67
2018-12-04T00:25:33.894Z,9.53
2018-12-04T00:28:01.631Z,9.41
2018-12-04T00:30:29.644Z,9.29
2018-12-04T00:32:57.665Z,9.16
2018-12-04T00:35:25.312Z,9.05
2018-12-04T00:37:52.932Z,8.94
2018-12-04T00:40:20.917Z,8.85
2018-12-04T00:42:48.585Z,8.79
2018-12-04T00:45:16.229Z,8.75
2018-12-04T00:47:44.291Z,8.72
2018-12-04T00:50:11.893Z,8.69
2018-12-04T00:52:39.502Z,8.64
2018-12-04T00:55:07.082Z,8.57
2018-12-04T00:57:35.125Z,8.54
2018-12-04T01:00:02.711Z,8.48
2018-12-04T01:02:30.284Z,8.44
2018-12-04T01:04:57.935Z,8.43
2018-12-04T01:07:25.869Z,8.41
2018-12-04T01:09:53.469Z,8.38
2018-12-04T01:12:21.079Z,8.37
2018-12-04T01:14:48.677Z,8.33
2018-12-04T01:17:17.620Z,8.32
2018-12-04T01:19:45.283Z,8.29
2018-12-04T01:22:12.874Z,8.25
2018-12-04T01:24:40.482Z,8.22
2018-12-04T01:27:08.388Z,8.21
2018-12-04T01:29:36.889Z,8.20
2018-12-04T01:32:05.108Z,8.18
2018-12-04T01:34:32.718Z,8.18
2018-12-04T01:37:00.706Z,8.18
2018-12-04T01:39:28.317Z,8.16
2018-12-04T01:41:55.937Z,8.15
2018-12-04T01:44:23.545Z,8.12
2018-12-04T01:46:51.162Z,8.13
2018-12-04T01:49:19.218Z,8.11
2018-12-04T01:51:46.861Z,8.11
2018-12-04T01:54:14.464Z,8.10
2018-12-04T01:56:42.092Z,8.08
2018-12-04T01:59:10.086Z,8.10
2018-12-04T02:01:37.669Z,8.10
2018-12-04T02:04:06.539Z,8.08
2018-12-04T02:06:34.174Z,8.08
2018-12-04T02:09:02.167Z,8.07
2018-12-04T02:11:29.784Z,8.07
2018-12-04T02:13:57.405Z,8.07
2018-12-04T02:16:25.349Z,8.07
2018-12-04T02:18:52.988Z,8.06
2018-12-04T02:21:20.629Z,8.04
2018-12-04T02:23:48.265Z,8.04
2018-12-04T02:26:16.198Z,8.03
2018-12-04T02:28:43.816Z,8.02
2018-12-04T02:31:11.420Z,8.03
2018-12-04T02:33:38.985Z,8.03
2018-12-04T02:36:07.034Z,8.02
2018-12-04T02:38:34.692Z,8.02
2018-12-04T02:41:02.287Z,8.02
2018-12-04T02:43:29.922Z,8.01
2018-12-04T02:45:57.536Z,8.02
2018-12-04T02:48:25.130Z,8.02
2018-12-04T02:50:53.226Z,8.03
2018-12-04T02:53:21.470Z,8.03
2018-12-04T02:55:49.060Z,8.05
2018-12-04T02:58:17.050Z,8.07
2018-12-04T03:00:44.946Z,8.07
2018-12-04T03:03:12.524Z,8.08
2018-12-04T03:05:40.153Z,8.08
2018-12-04T03:08:08.238Z,8.10
2018-12-04T03:10:35.809Z,8.10
2018-12-04T03:13:03.437Z,8.12
2018-12-04T03:15:31.710Z,8.12
2018-12-04T03:17:59.374Z,8.14
2018-12-04T03:20:27.011Z,8.15
2018-12-04T03:22:54.618Z,8.16
2018-12-04T03:25:22.623Z,8.18
2018-12-04T03:27:50.209Z,8.18
2018-12-04T03:30:17.787Z,8.18
2018-12-04T03:32:45.865Z,8.17
2018-12-04T03:35:13.475Z,8.15
2018-12-04T03:37:41.052Z,8.13
2018-12-04T03:40:08.658Z,8.13
2018-12-04T03:42:36.639Z,8.12
2018-12-04T03:45:04.193Z,8.09
2018-12-04T03:47:31.781Z,8.06
2018-12-04T03:49:59.405Z,8.06
2018-12-04T03:52:27.317Z,8.04
2018-12-04T03:54:54.917Z,8.01
2018-12-04T03:57:23.473Z,8.00
2018-12-04T03:59:51.076Z,7.98
2018-12-04T04:02:19.070Z,7.98
2018-12-04T04:04:46.661Z,7.98
2018-12-04T04:07:14.234Z,7.97
2018-12-04T04:09:41.798Z,7.96
2018-12-04T04:12:10.048Z,7.96
2018-12-04T04:14:37.711Z,7.96
2018-12-04T04:17:05.317Z,7.95
2018-12-04T04:19:32.958Z,7.94
2018-12-04T04:22:00.968Z,7.93
2018-12-04T04:24:28.602Z,7.92
2018-12-04T04:26:56.219Z,7.90
2018-12-04T04:29:23.850Z,7.90
2018-12-04T04:31:54.856Z,7.89
2018-12-04T04:34:22.469Z,7.87
2018-12-04T04:36:50.049Z,7.85
2018-12-04T04:39:17.698Z,7.78
2018-12-04T04:41:45.801Z,7.74
2018-12-04T04:44:13.386Z,7.67
2018-12-04T04:46:40.973Z,7.62
2018-12-04T04:49:09.270Z,7.57
2018-12-04T04:51:37.262Z,7.53
2018-12-04T04:54:04.885Z,7.51
2018-12-04T04:56:32.484Z,7.51
2018-12-04T04:59:00.086Z,7.48
2018-12-04T05:01:28.105Z,7.44
2018-12-04T05:03:55.767Z,7.41
2018-12-04T05:06:23.410Z,7.41
2018-12-04T05:08:51.043Z,7.40
2018-12-04T05:11:18.946Z,7.33
2018-12-04T05:13:46.538Z,7.25
2018-12-04T05:16:14.125Z,7.16
2018-12-04T05:18:41.777Z,7.09
2018-12-04T05:21:09.798Z,7.01
2018-12-04T05:23:37.637Z,6.91
2018-12-04T05:26:05.245Z,6.85
2018-12-04T05:28:33.186Z,6.79
2018-12-04T05:31:00.803Z,6.77
2018-12-04T05:33:29.333Z,6.77
2018-12-04T05:36:00.815Z,6.75
2018-12-04T05:38:28.405Z,6.72
2018-12-04T05:40:55.977Z,6.69
2018-12-04T05:43:23.871Z,6.65
2018-12-04T05:45:51.514Z,6.61
2018-12-04T05:48:19.131Z,6.59
2018-12-04T05:50:47.056Z,6.53
2018-12-04T05:53:14.665Z,6.51
2018-12-04T05:55:42.314Z,6.48
2018-12-04T05:58:10.361Z,6.52
2018-12-04T06:00:38.007Z,6.56
2018-12-04T06:03:05.642Z,6.61
2018-12-04T06:05:33.550Z,6.66
2018-12-04T06:08:01.218Z,6.72
2018-12-04T06:10:28.794Z,6.79
2018-12-04T06:12:56.759Z,6.84
2018-12-04T06:15:24.378Z,6.88
2018-12-04T06:17:51.945Z,6.92
2018-12-04T06:20:19.824Z,6.95
2018-12-04T06:22:47.405Z,6.98
2018-12-04T06:25:15.094Z,7.01
2018-12-04T06:27:43.186Z,7.04
2018-12-04T06:30:10.790Z,7.06
2018-12-04T06:32:38.406Z,7.08
2018-12-04T06:35:07.079Z,7.10
2018-12-04T06:37:34.757Z,7.10
2018-12-04T06:40:02.386Z,7.12
2018-12-04T06:42:30.333Z,7.13
2018-12-04T06:44:57.909Z,7.14
2018-12-04T06:47:25.534Z,7.15
2018-12-04T06:49:53.529Z,7.16
2018-12-04T06:52:21.144Z,7.17
2018-12-04T06:54:48.739Z,7.15
2018-12-04T06:57:16.693Z,7.15
2018-12-04T06:59:44.270Z,7.14
2018-12-04T07:02:11.926Z,7.15
2018-12-04T07:04:40.006Z,7.15
2018-12-04T07:07:07.606Z,7.15
2018-12-04T07:09:35.180Z,7.13
2018-12-04T07:12:03.091Z,7.13
2018-12-04T07:14:30.694Z,7.12
2018-12-04T07:16:58.297Z,7.06
2018-12-04T07:19:26.409Z,6.97
2018-12-04T07:21:54.042Z,6.88
2018-12-04T07:24:21.642Z,6.80
2018-12-04T07:26:49.561Z,6.71
2018-12-04T07:29:17.156Z,6.66
2018-12-04T07:31:44.759Z,6.63
2018-12-04T07:34:12.755Z,6.67
2018-12-04T07:36:40.366Z,6.72
2018-12-04T07:39:08.288Z,6.78
2018-12-04T07:41:37.114Z,6.82
2018-12-04T07:44:04.734Z,6.87
2018-12-04T07:46:32.360Z,6.90
2018-12-04T07:49:00.369Z,6.91
2018-12-04T07:51:28.032Z,6.92
2018-12-04T07:53:58.660Z,6.91
2018-12-04T07:56:26.642Z,6.89
2018-12-04T07:58:54.269Z,6.87
2018-12-04T08:01:21.857Z,6.84
2018-12-04T08:03:50.542Z,6.80
2018-12-04T08:06:18.917Z,6.79
2018-12-04T08:08:46.504Z,6.78
2018-12-04T08:11:14.549Z,6.77
2018-12-04T08:13:42.146Z,6.74
2018-12-04T08:16:10.438Z,6.72
2018-12-04T08:18:38.428Z,6.67
2018-12-04T08:21:06.010Z,6.65
2018-12-04T08:23:33.592Z,6.62
2018-12-04T08:26:01.531Z,6.63
2018-12-04T08:28:29.105Z,6.70
2018-12-04T08:30:56.736Z,6.84
2018-12-04T08:33:24.751Z,7.04
2018-12-04T08:35:52.453Z,7.23
2018-12-04T08:38:20.077Z,7.37
2018-12-04T08:40:48.123Z,7.43
2018-12-04T08:43:15.750Z,7.43
2018-12-04T08:45:43.344Z,7.47
2018-12-04T08:48:11.317Z,7.50
2018-12-04T08:50:39.784Z,7.51
2018-12-04T08:53:07.388Z,7.53
2018-12-04T08:55:35.422Z,7.55
2018-12-04T08:58:03.042Z,7.60
2018-12-04T09:00:30.610Z,7.66
2018-12-04T09:02:58.613Z,7.73
2018-12-04T09:05:26.259Z,7.77
2018-12-04T09:07:53.853Z,7.74
2018-12-04T09:10:23.230Z,7.67
2018-12-04T09:12:50.855Z,7.59
2018-12-04T09:15:18.466Z,7.52
2018-12-04T09:17:46.438Z,7.52
2018-12-04T09:20:14.085Z,7.54
2018-12-04T09:22:41.758Z,7.59
2018-12-04T09:25:09.918Z,7.58
2018-12-04T09:27:37.565Z,7.54
2018-12-04T09:30:05.344Z,7.52
2018-12-04T09:32:34.405Z,7.54
2018-12-04T09:35:02.080Z,7.57
2018-12-04T09:37:29.690Z,7.66
2018-12-04T09:39:58.546Z,7.84
2018-12-04T09:42:26.150Z,8.04
2018-12-04T09:44:53.813Z,8.23
2018-12-04T09:47:21.854Z,8.52
2018-12-04T09:49:49.509Z,8.97
2018-12-04T09:52:17.916Z,9.45
2018-12-04T09:54:45.867Z,10.09
2018-12-04T09:57:13.501Z,10.86
2018-12-04T09:59:41.945Z,11.60
2018-12-04T10:02:09.876Z,12.28
2018-12-04T10:04:37.508Z,12.18
2018-12-04T10:07:05.745Z,12.22
2018-12-04T10:09:34.549Z,12.00
2018-12-04T10:12:02.144Z,11.48
2018-12-04T10:14:29.790Z,10.86
2018-12-04T10:16:57.769Z,10.34
2018-12-04T10:19:25.375Z,9.96
2018-12-04T10:21:52.970Z,9.77
2018-12-04T10:24:20.992Z,9.74
2018-12-04T10:26:52.666Z,9.74
2018-12-04T10:29:20.295Z,9.71
2018-12-04T10:31:48.293Z,9.68
2018-12-04T10:34:15.935Z,9.74
2018-12-04T10:36:43.544Z,9.77
2018-12-04T10:39:11.539Z,9.74
2018-12-04T10:41:39.141Z,9.78
2018-12-04T10:44:06.752Z,9.86
2018-12-04T10:46:34.782Z,10.41
2018-12-04T10:49:02.882Z,11.58
2018-12-04T10:51:30.547Z,12.64
2018-12-04T10:53:59.553Z,13.25
2018-12-04T10:56:28.131Z,13.19
2018-12-04T10:58:57.059Z,12.91
2018-12-04T11:01:29.057Z,12.36
2018-12-04T11:03:56.833Z,12.41
2018-12-04T11:06:24.484Z,12.24
2018-12-04T11:08:52.515Z,11.79
2018-12-04T11:11:20.913Z,11.26
2018-12-04T11:13:48.580Z,11.24
2018-12-04T11:16:16.514Z,11.77
2018-12-04T11:18:44.104Z,12.52
2018-12-04T11:21:12.562Z,13.01
2018-12-04T11:23:40.561Z,13.34
2018-12-04T11:26:08.299Z,13.92
2018-12-04T11:28:35.952Z,14.39
2018-12-04T11:31:03.933Z,14.50
2018-12-04T11:33:31.591Z,14.38
2018-12-04T11:35:59.254Z,14.79
2018-12-04T11:38:28.213Z,15.17
2018-12-04T11:40:56.420Z,15.37
2018-12-04T11:43:24.061Z,15.57
2018-12-04T11:45:51.816Z,15.70
2018-12-04T11:48:19.564Z,15.77
2018-12-04T11:50:47.481Z,15.81
2018-12-04T11:53:15.108Z,15.37
2018-12-04T11:55:42.733Z,15.06
2018-12-04T11:58:12.563Z,14.61
2018-12-04T12:00:40.291Z,14.23
2018-12-04T12:03:07.986Z,13.78
2018-12-04T12:05:37.131Z,13.28
2018-12-04T12:08:05.719Z,12.81
2018-12-04T12:10:33.413Z,12.50
2018-12-04T12:13:01.382Z,12.21
2018-12-04T12:15:29.115Z,11.86
2018-12-04T12:17:56.737Z,11.56
2018-12-04T12:20:24.778Z,11.39
2018-12-04T12:22:52.465Z,11.26
2018-12-04T12:25:20.744Z,11.15
2018-12-04T12:27:48.821Z,11.02
2018-12-04T12:30:16.456Z,10.94
2018-12-04T12:32:44.090Z,10.89
2018-12-04T12:35:12.185Z,10.90
2018-12-04T12:37:40.665Z,10.95
2018-12-04T12:40:08.286Z,10.92
2018-12-04T12:42:37.297Z,10.84
2018-12-04T12:45:04.909Z,10.74
2018-12-04T12:47:32.546Z,10.66
2018-12-04T12:50:01.219Z,10.53
2018-12-04T12:52:30.603Z,10.51
2018-12-04T12:54:58.185Z,10.40
2018-12-04T12:57:26.461Z,10.30
2018-12-04T12:59:54.109Z,10.19
2018-12-04T13:02:21.774Z,10.13
2018-12-04T13:04:49.729Z,10.12
2018-12-04T13:07:17.407Z,10.12
2018-12-04T13:09:45.918Z,10.18
2018-12-04T13:12:14.648Z,10.27
2018-12-04T13:14:42.336Z,10.34
2018-12-04T13:17:10.543Z,10.39
2018-12-04T13:19:38.706Z,10.41
2018-12-04T13:22:06.326Z,10.49
2018-12-04T13:24:33.977Z,10.59
2018-12-04T13:27:02.139Z,10.66
2018-12-04T13:29:32.293Z,10.70
2018-12-04T13:32:00.717Z,10.75
2018-12-04T13:34:29.209Z,10.75
2018-12-04T13:36:58.727Z,10.72
2018-12-04T13:39:27.103Z,10.75
2018-12-04T13:41:55.288Z,10.74
2018-12-04T13:44:23.650Z,10.64
2018-12-04T13:46:51.259Z,10.48
2018-12-04T13:49:19.330Z,10.34
2018-12-04T13:51:47.036Z,10.21
2018-12-04T13:54:15.461Z,10.09
2018-12-04T13:56:43.569Z,10.00
2018-12-04T13:59:11.217Z,9.93
2018-12-04T14:01:39.507Z,9.87
2018-12-04T14:04:07.593Z,9.92
2018-12-04T14:06:35.231Z,10.03
2018-12-04T14:09:03.953Z,10.20
2018-12-04T14:11:31.959Z,10.43
2018-12-04T14:14:00.219Z,10.60
2018-12-04T14:16:27.826Z,10.68
2018-12-04T14:18:55.754Z,10.71
2018-12-04T14:21:24.795Z,10.65
2018-12-04T14:23:52.403Z,10.54
2018-12-04T14:26:20.509Z,10.44
2018-12-04T14:28:48.113Z,10.28
2018-12-04T14:31:16.509Z,10.08
2018-12-04T14:33:44.766Z,9.86
2018-12-04T14:36:12.866Z,9.61
2018-12-04T14:38:40.666Z,9.38
2018-12-04T14:41:08.669Z,9.18
2018-12-04T14:43:37.517Z,8.97
2018-12-04T14:46:05.160Z,8.80
2018-12-04T14:48:33.620Z,8.65
2018-12-04T14:51:01.314Z,8.49
2018-12-04T14:53:28.981Z,8.34
2018-12-04T14:55:57.590Z,8.19
2018-12-04T14:58:25.230Z,8.06
2018-12-04T15:00:52.881Z,7.94
2018-12-04T15:03:20.836Z,7.81
2018-12-04T15:05:48.472Z,7.71
2018-12-04T15:08:16.049Z,7.63
2018-12-04T15:10:44.649Z,7.54
2018-12-04T15:13:12.492Z,7.47
2018-12-04T15:15:41.379Z,7.39
2018-12-04T15:18:09.466Z,7.34
2018-12-04T15:20:38.083Z,7.28
2018-12-04T15:23:05.731Z,7.19
2018-12-04T15:25:34.621Z,7.07
2018-12-04T15:28:02.314Z,6.96
2018-12-04T15:30:30.072Z,6.84
2018-12-04T15:32:58.257Z,6.73
2018-12-04T15:35:25.901Z,6.62
2018-12-04T15:37:53.549Z,6.53
2018-12-04T15:40:21.533Z,6.49
2018-12-04T15:42:49.205Z,6.43
2018-12-04T15:45:16.866Z,6.34
2018-12-04T15:47:44.727Z,6.25
2018-12-04T15:50:12.961Z,6.17
2018-12-04T15:52:41.720Z,6.10
2018-12-04T15:55:09.543Z,6.04
2018-12-04T15:57:38.157Z,5.98
2018-12-04T16:00:06.093Z,5.95
2018-12-04T16:02:33.699Z,5.87
2018-12-04T16:05:03.067Z,5.80
2018-12-04T16:07:33.154Z,5.72
2018-12-04T16:10:00.758Z,5.62
2018-12-04T16:12:28.403Z,5.55
2018-12-04T16:14:56.324Z,5.49
2018-12-04T16:17:24.199Z,5.43
2018-12-04T16:19:51.846Z,5.39
2018-12-04T16:22:19.785Z,5.32
2018-12-04T16:24:47.417Z,5.25
2018-12-04T16:27:15.146Z,5.19
2018-12-04T16:29:43.112Z,5.12
2018-12-04T16:32:10.748Z,5.06
2018-12-04T16:34:40.925Z,5.01
2018-12-04T16:37:09.193Z,4.95
2018-12-04T16:39:36.777Z,4.87
2018-12-04T16:42:05.054Z,4.76
2018-12-04T16:44:33.066Z,4.69
2018-12-04T16:47:00.731Z,4.63
2018-12-04T16:49:32.309Z,4.59
2018-12-04T16:52:01.101Z,4.55
2018-12-04T16:54:28.730Z,4.48
2018-12-04T16:56:56.345Z,4.42
2018-12-04T16:59:24.501Z,4.35
2018-12-04T17:01:52.176Z,4.29
2018-12-04T17:04:19.798Z,4.26
2018-12-04T17:06:47.706Z,4.26
2018-12-04T17:09:16.373Z,4.26
2018-12-04T17:11:44.670Z,4.24
2018-12-04T17:14:13.681Z,4.23
2018-12-04T17:16:41.439Z,4.22
2018-12-04T17:19:09.223Z,4.21
2018-12-04T17:21:37.130Z,4.22
2018-12-04T17:24:05.375Z,4.25
2018-12-04T17:26:32.986Z,4.26
2018-12-04T17:29:02.032Z,4.29
2018-12-04T17:31:32.637Z,4.30
2018-12-04T17:34:00.266Z,4.30
2018-12-04T17:36:28.359Z,4.29
2018-12-04T17:38:56.002Z,4.28
2018-12-04T17:41:23.630Z,4.23
2018-12-04T17:43:52.952Z,4.23
2018-12-04T17:46:20.585Z,4.21
2018-12-04T17:48:49.088Z,4.18
2018-12-04T17:51:18.076Z,4.17
2018-12-04T17:53:45.661Z,4.16
2018-12-04T17:56:13.559Z,4.12
2018-12-04T17:58:41.594Z,4.10
2018-12-04T18:01:09.348Z,4.07
2018-12-04T18:03:36.941Z,4.05
2018-12-04T18:06:08.622Z,4.04
2018-12-04T18:08:37.040Z,4.03
2018-12-04T18:11:05.689Z,4.02
2018-12-04T18:13:35.753Z,4.02
2018-12-04T18:16:03.354Z,3.99
2018-12-04T18:18:33.258Z,3.96
2018-12-04T18:21:01.279Z,3.92
2018-12-04T18:23:28.895Z,3.87
2018-12-04T18:25:56.523Z,3.80
2018-12-04T18:28:24.565Z,3.73
2018-12-04T18:30:52.173Z,3.73
2018-12-04T18:33:19.790Z,3.75
2018-12-04T18:35:48.636Z,3.77
2018-12-04T18:38:17.357Z,3.78
2018-12-04T18:40:44.993Z,3.73
2018-12-04T18:43:13.024Z,3.71
2018-12-04T18:45:40.664Z,3.68
2018-12-04T18:48:08.280Z,3.65
2018-12-04T18:50:36.234Z,3.61
2018-12-04T18:53:06.745Z,3.57
2018-12-04T18:55:34.359Z,3.55
2018-12-04T18:58:02.390Z,3.51
2018-12-04T19:00:30.535Z,3.51
2018-12-04T19:02:58.171Z,3.45
2018-12-04T19:05:26.222Z,3.39
2018-12-04T19:07:53.801Z,3.29
2018-12-04T19:10:21.717Z,3.21
2018-12-04T19:12:50.046Z,3.15
2018-12-04T19:15:17.664Z,3.09
2018-12-04T19:17:45.297Z,3.04
2018-12-04T19:20:14.637Z,3.01
2018-12-04T19:22:42.274Z,2.99
2018-12-04T19:25:11.681Z,2.95
2018-12-04T19:27:39.636Z,2.91
2018-12-04T19:30:08.970Z,2.93
2018-12-04T19:32:37.401Z,2.95
2018-12-04T19:35:05.322Z,2.96
2018-12-04T19:37:33.020Z,2.97
2018-12-04T19:40:01.694Z,2.99
2018-12-04T19:42:30.648Z,2.98
2018-12-04T19:44:58.277Z,2.97
2018-12-04T19:47:26.537Z,2.95
2018-12-04T19:49:55.139Z,2.93
2018-12-04T19:52:22.766Z,2.89
2018-12-04T19:54:50.485Z,2.87
2018-12-04T19:57:18.762Z,2.84
2018-12-04T19:59:46.506Z,2.82
2018-12-04T20:02:15.223Z,2.79
2018-12-04T20:04:43.360Z,2.75
2018-12-04T20:07:11.693Z,2.73
2018-12-04T20:09:39.343Z,2.68
2018-12-04T20:12:07.545Z,2.66
2018-12-04T20:14:35.212Z,2.64
2018-12-04T20:17:03.477Z,2.62
2018-12-04T20:19:32.383Z,2.58
2018-12-04T20:22:00.589Z,2.56
2018-12-04T20:24:28.291Z,2.52
2018-12-04T20:26:56.332Z,2.46
2018-12-04T20:29:23.958Z,2.42
2018-12-04T20:31:51.636Z,2.39
2018-12-04T20:34:19.624Z,2.38
2018-12-04T20:36:49.193Z,2.39
2018-12-04T20:39:16.805Z,2.37
2018-12-04T20:41:45.495Z,2.36
2018-12-04T20:44:13.128Z,2.36
2018-12-04T20:46:40.832Z,2.32
2018-12-04T20:49:08.624Z,2.28
2018-12-04T20:51:38.140Z,2.22
2018-12-04T20:54:06.096Z,2.19
2018-12-04T20:56:35.383Z,2.20
2018-12-04T20:59:03.942Z,2.24
2018-12-04T21:01:32.089Z,2.26
2018-12-04T21:03:59.742Z,2.25
2018-12-04T21:06:28.775Z,2.24
2018-12-04T21:08:57.557Z,2.22
2018-12-04T21:11:25.266Z,2.20
2018-12-04T21:13:54.295Z,2.21
2018-12-04T21:16:22.414Z,2.20
2018-12-04T21:18:51.306Z,2.16
2018-12-04T21:21:20.496Z,2.08
2018-12-04T21:23:49.137Z,1.99
2018-12-04T21:26:16.748Z,1.94
2018-12-04T21:28:49.005Z,1.90
2018-12-04T21:31:23.600Z,1.84
2018-12-04T21:33:56.534Z,1.84
2018-12-04T21:36:29.230Z,1.83
2018-12-04T21:39:05.029Z,1.82
2018-12-04T21:41:37.736Z,1.80
2018-12-04T21:44:11.415Z,1.82
2018-12-04T21:46:45.007Z,1.84
2018-12-04T21:49:12.664Z,1.85
2018-12-04T21:51:40.659Z,1.87
2018-12-04T21:54:08.311Z,1.90
2018-12-04T21:56:35.995Z,1.91
2018-12-04T21:59:04.608Z,1.92
2018-12-04T22:01:32.553Z,1.94
2018-12-04T22:04:00.172Z,1.99
2018-12-04T22:06:28.767Z,1.98
2018-12-04T22:08:56.749Z,1.96
2018-12-04T22:11:24.774Z,1.97
2018-12-04T22:13:52.504Z,1.96
2018-12-04T22:16:20.110Z,1.93
2018-12-04T22:18:47.746Z,1.90
2018-12-04T22:21:15.422Z,1.86
2018-12-04T22:23:43.531Z,1.82
2018-12-04T22:26:11.208Z,1.78
2018-12-04T22:28:38.809Z,1.76
2018-12-04T22:31:06.735Z,1.71
2018-12-04T22:33:34.336Z,1.66
2018-12-04T22:36:03.146Z,1.62
2018-12-04T22:38:30.862Z,1.60
2018-12-04T22:40:58.782Z,1.61
2018-12-04T22:43:26.414Z,1.64
2018-12-04T22:45:54.059Z,1.65
2018-12-04T22:48:21.682Z,1.66
2018-12-04T22:50:49.541Z,1.70
2018-12-04T22:53:17.716Z,1.72
2018-12-04T22:55:45.821Z,1.74
2018-12-04T22:58:13.453Z,1.76
2018-12-04T23:00:42.648Z,1.76
2018-12-04T23:03:10.655Z,1.76
2018-12-04T23:05:38.298Z,1.76
2018-12-04T23:08:05.979Z,1.75
2018-12-04T23:10:33.643Z,1.75
2018-12-04T23:13:01.693Z,1.75
2018-12-04T23:15:30.513Z,1.74
2018-12-04T23:17:58.359Z,1.76
2018-12-04T23:20:26.014Z,1.77
2018-12-04T23:22:54.118Z,1.79
2018-12-04T23:25:21.749Z,1.83
2018-12-04T23:27:49.350Z,1.84
2018-12-04T23:30:16.993Z,1.87
2018-12-04T23:32:45.017Z,1.90
2018-12-04T23:35:12.613Z,1.92
2018-12-04T23:37:40.324Z,1.96
2018-12-04T23:40:07.954Z,1.99
2018-12-04T23:42:35.891Z,2.04
2018-12-04T23:45:03.529Z,2.09
2018-12-04T23:47:31.123Z,2.11
2018-12-04T23:49:58.758Z,2.14
2018-12-04T23:52:26.394Z,2.17
2018-12-04T23:54:54.422Z,2.20
2018-12-04T23:57:22.029Z,2.22
2018-12-04T23:59:49.640Z,2.24
